sensor_id;sensor_type;location;lat;lon;timestamp;P1;durP1;ratioP1;P2;durP2;ratioP2
15528;SDS011;7866;52.280;9.500;2023-06-26T00:03:54;4.35;;;4.00;;
15528;SDS011;7866;52.280;9.500;2023-06-26T00:08:56;4.93;;;4.00;;
15528;SDS011;7866;52.280;9.500;2023-06-26T00:13:58;4.40;;;4.00;;
15528;SDS011;7866;52.280;9.500;2023-06-26T00:19:01;4.07;;;3.78;;
15528;SDS011;7866;52.280;9.500;2023-06-26T00:24:03;5.10;;;4.20;;
15528;SDS011;7866;52.280;9.500;2023-06-26T00:29:05;4.25;;;3.95;;
15528;SDS011;7866;52.280;9.500;2023-06-26T00:34:08;4.20;;;3.90;;
15528;SDS011;7866;52.280;9.500;2023-06-26T00:39:10;5.30;;;4.10;;
15528;SDS011;7866;52.280;9.500;2023-06-26T00:44:11;4.43;;;4.03;;
15528;SDS011;7866;52.280;9.500;2023-06-26T00:49:14;4.20;;;3.75;;
15528;SDS011;7866;52.280;9.500;2023-06-26T00:54:16;4.10;;;3.80;;
15528;SDS011;7866;52.280;9.500;2023-06-26T00:59:20;6.05;;;3.88;;
15528;SDS011;7866;52.280;9.500;2023-06-26T01:04:23;4.07;;;3.75;;
15528;SDS011;7866;52.280;9.500;2023-06-26T01:09:27;4.10;;;3.80;;
15528;SDS011;7866;52.280;9.500;2023-06-26T01:14:30;3.97;;;3.67;;
15528;SDS011;7866;52.280;9.500;2023-06-26T01:19:33;4.35;;;3.95;;
15528;SDS011;7866;52.280;9.500;2023-06-26T01:24:35;3.90;;;3.63;;
15528;SDS011;7866;52.280;9.500;2023-06-26T01:29:41;4.10;;;3.70;;
15528;SDS011;7866;52.280;9.500;2023-06-26T01:34:45;3.90;;;3.60;;
15528;SDS011;7866;52.280;9.500;2023-06-26T01:39:47;4.13;;;3.78;;
15528;SDS011;7866;52.280;9.500;2023-06-26T01:44:50;4.18;;;3.88;;
15528;SDS011;7866;52.280;9.500;2023-06-26T01:49:57;3.80;;;3.50;;
15528;SDS011;7866;52.280;9.500;2023-06-26T01:55:05;4.85;;;3.95;;
15528;SDS011;7866;52.280;9.500;2023-06-26T02:00:15;4.85;;;4.45;;
15528;SDS011;7866;52.280;9.500;2023-06-26T02:05:19;4.20;;;3.90;;
15528;SDS011;7866;52.280;9.500;2023-06-26T02:10:20;4.25;;;3.90;;
15528;SDS011;7866;52.280;9.500;2023-06-26T02:15:23;5.22;;;4.60;;
15528;SDS011;7866;52.280;9.500;2023-06-26T02:20:25;4.57;;;4.18;;
15528;SDS011;7866;52.280;9.500;2023-06-26T02:25:26;3.95;;;3.65;;
15528;SDS011;7866;52.280;9.500;2023-06-26T02:30:29;4.65;;;3.90;;
15528;SDS011;7866;52.280;9.500;2023-06-26T02:35:31;4.30;;;3.83;;
15528;SDS011;7866;52.280;9.500;2023-06-26T02:40:33;4.15;;;3.85;;
15528;SDS011;7866;52.280;9.500;2023-06-26T02:45:36;4.57;;;4.18;;
15528;SDS011;7866;52.280;9.500;2023-06-26T02:50:38;4.20;;;3.90;;
15528;SDS011;7866;52.280;9.500;2023-06-26T02:55:39;4.10;;;3.80;;
15528;SDS011;7866;52.280;9.500;2023-06-26T03:00:42;4.10;;;3.70;;
15528;SDS011;7866;52.280;9.500;2023-06-26T03:05:44;4.50;;;4.10;;
15528;SDS011;7866;52.280;9.500;2023-06-26T03:10:46;4.55;;;4.18;;
15528;SDS011;7866;52.280;9.500;2023-06-26T03:15:50;4.07;;;3.78;;
15528;SDS011;7866;52.280;9.500;2023-06-26T03:20:51;4.35;;;4.05;;
15528;SDS011;7866;52.280;9.500;2023-06-26T03:25:54;4.10;;;3.80;;
15528;SDS011;7866;52.280;9.500;2023-06-26T03:30:57;4.55;;;4.15;;
15528;SDS011;7866;52.280;9.500;2023-06-26T03:35:59;4.20;;;3.80;;
15528;SDS011;7866;52.280;9.500;2023-06-26T03:41:01;4.05;;;3.65;;
15528;SDS011;7866;52.280;9.500;2023-06-26T03:46:04;4.35;;;4.05;;
15528;SDS011;7866;52.280;9.500;2023-06-26T03:51:06;8.80;;;3.80;;
15528;SDS011;7866;52.280;9.500;2023-06-26T03:56:07;4.78;;;4.38;;
15528;SDS011;7866;52.280;9.500;2023-06-26T04:01:10;4.70;;;4.10;;
15528;SDS011;7866;52.280;9.500;2023-06-26T04:06:12;4.22;;;3.92;;
15528;SDS011;7866;52.280;9.500;2023-06-26T04:11:14;4.82;;;4.40;;
15528;SDS011;7866;52.280;9.500;2023-06-26T04:16:17;4.78;;;4.38;;
15528;SDS011;7866;52.280;9.500;2023-06-26T04:21:18;4.47;;;4.07;;
15528;SDS011;7866;52.280;9.500;2023-06-26T04:26:20;4.30;;;3.90;;
15528;SDS011;7866;52.280;9.500;2023-06-26T04:31:23;4.35;;;3.95;;
15528;SDS011;7866;52.280;9.500;2023-06-26T04:36:25;4.55;;;4.15;;
15528;SDS011;7866;52.280;9.500;2023-06-26T04:41:28;4.47;;;4.15;;
15528;SDS011;7866;52.280;9.500;2023-06-26T04:46:31;4.68;;;4.20;;
15528;SDS011;7866;52.280;9.500;2023-06-26T04:51:33;4.50;;;4.13;;
15528;SDS011;7866;52.280;9.500;2023-06-26T04:56:40;4.30;;;3.90;;
15528;SDS011;7866;52.280;9.500;2023-06-26T05:01:43;4.20;;;3.90;;
15528;SDS011;7866;52.280;9.500;2023-06-26T05:06:48;4.40;;;4.10;;
15528;SDS011;7866;52.280;9.500;2023-06-26T05:11:49;6.95;;;4.38;;
15528;SDS011;7866;52.280;9.500;2023-06-26T05:16:52;5.55;;;4.20;;
15528;SDS011;7866;52.280;9.500;2023-06-26T05:21:54;4.78;;;4.30;;
15528;SDS011;7866;52.280;9.500;2023-06-26T05:26:57;4.47;;;4.10;;
15528;SDS011;7866;52.280;9.500;2023-06-26T05:32:00;4.55;;;4.15;;
15528;SDS011;7866;52.280;9.500;2023-06-26T05:37:03;5.00;;;4.60;;
15528;SDS011;7866;52.280;9.500;2023-06-26T05:42:06;4.43;;;4.03;;
15528;SDS011;7866;52.280;9.500;2023-06-26T05:47:10;4.95;;;4.55;;
15528;SDS011;7866;52.280;9.500;2023-06-26T05:52:12;4.45;;;4.05;;
15528;SDS011;7866;52.280;9.500;2023-06-26T05:57:14;5.63;;;3.80;;
15528;SDS011;7866;52.280;9.500;2023-06-26T06:02:18;4.75;;;4.35;;
15528;SDS011;7866;52.280;9.500;2023-06-26T06:07:20;5.10;;;4.70;;
15528;SDS011;7866;52.280;9.500;2023-06-26T06:12:22;4.47;;;4.07;;
15528;SDS011;7866;52.280;9.500;2023-06-26T06:17:25;4.93;;;4.43;;
15528;SDS011;7866;52.280;9.500;2023-06-26T06:22:26;5.00;;;4.50;;
15528;SDS011;7866;52.280;9.500;2023-06-26T06:27:28;4.50;;;4.10;;
15528;SDS011;7866;52.280;9.500;2023-06-26T06:32:32;4.65;;;4.35;;
15528;SDS011;7866;52.280;9.500;2023-06-26T06:37:35;4.57;;;4.18;;
15528;SDS011;7866;52.280;9.500;2023-06-26T06:42:37;4.75;;;4.35;;
15528;SDS011;7866;52.280;9.500;2023-06-26T06:47:40;4.90;;;4.50;;
15528;SDS011;7866;52.280;9.500;2023-06-26T06:52:42;5.10;;;4.38;;
15528;SDS011;7866;52.280;9.500;2023-06-26T06:57:44;4.65;;;4.25;;
15528;SDS011;7866;52.280;9.500;2023-06-26T07:02:47;5.22;;;4.65;;
15528;SDS011;7866;52.280;9.500;2023-06-26T07:07:49;5.18;;;4.75;;
15528;SDS011;7866;52.280;9.500;2023-06-26T07:12:50;5.38;;;4.28;;
15528;SDS011;7866;52.280;9.500;2023-06-26T07:17:53;7.28;;;4.63;;
15528;SDS011;7866;52.280;9.500;2023-06-26T07:22:55;5.00;;;4.60;;
15528;SDS011;7866;52.280;9.500;2023-06-26T07:27:57;4.95;;;4.55;;
15528;SDS011;7866;52.280;9.500;2023-06-26T07:33:00;4.53;;;4.22;;
15528;SDS011;7866;52.280;9.500;2023-06-26T07:38:01;4.75;;;4.10;;
15528;SDS011;7866;52.280;9.500;2023-06-26T07:43:03;5.00;;;4.60;;
15528;SDS011;7866;52.280;9.500;2023-06-26T07:48:06;5.15;;;4.40;;
15528;SDS011;7866;52.280;9.500;2023-06-26T07:53:09;5.38;;;4.95;;
15528;SDS011;7866;52.280;9.500;2023-06-26T07:58:10;5.25;;;4.85;;
15528;SDS011;7866;52.280;9.500;2023-06-26T08:03:13;5.82;;;4.72;;
15528;SDS011;7866;52.280;9.500;2023-06-26T08:08:15;5.22;;;4.70;;
15528;SDS011;7866;52.280;9.500;2023-06-26T08:13:16;5.00;;;4.60;;
15528;SDS011;7866;52.280;9.500;2023-06-26T08:18:19;5.18;;;4.78;;
15528;SDS011;7866;52.280;9.500;2023-06-26T08:23:21;5.63;;;5.07;;
15528;SDS011;7866;52.280;9.500;2023-06-26T08:28:23;6.18;;;5.57;;
15528;SDS011;7866;52.280;9.500;2023-06-26T08:33:26;5.40;;;5.00;;
15528;SDS011;7866;52.280;9.500;2023-06-26T08:38:27;5.72;;;5.22;;
15528;SDS011;7866;52.280;9.500;2023-06-26T08:43:29;5.65;;;5.25;;
15528;SDS011;7866;52.280;9.500;2023-06-26T08:48:32;8.52;;;6.53;;
15528;SDS011;7866;52.280;9.500;2023-06-26T08:53:36;5.95;;;5.45;;
15528;SDS011;7866;52.280;9.500;2023-06-26T08:58:44;8.32;;;6.55;;
15528;SDS011;7866;52.280;9.500;2023-06-26T09:03:47;6.80;;;6.20;;
15528;SDS011;7866;52.280;9.500;2023-06-26T09:08:49;7.80;;;6.53;;
15528;SDS011;7866;52.280;9.500;2023-06-26T09:13:50;6.57;;;5.80;;
15528;SDS011;7866;52.280;9.500;2023-06-26T09:18:55;7.03;;;6.35;;
15528;SDS011;7866;52.280;9.500;2023-06-26T09:23:57;6.88;;;6.18;;
15528;SDS011;7866;52.280;9.500;2023-06-26T09:28:59;6.20;;;5.60;;
15528;SDS011;7866;52.280;9.500;2023-06-26T09:34:03;6.75;;;6.15;;
15528;SDS011;7866;52.280;9.500;2023-06-26T09:39:05;5.93;;;5.22;;
15528;SDS011;7866;52.280;9.500;2023-06-26T09:44:11;7.32;;;5.93;;
15528;SDS011;7866;52.280;9.500;2023-06-26T09:49:17;6.63;;;5.75;;
15528;SDS011;7866;52.280;9.500;2023-06-26T09:54:19;7.50;;;6.72;;
15528;SDS011;7866;52.280;9.500;2023-06-26T09:59:23;6.85;;;6.25;;
15528;SDS011;7866;52.280;9.500;2023-06-26T10:04:26;8.95;;;8.10;;
15528;SDS011;7866;52.280;9.500;2023-06-26T10:09:28;7.93;;;6.63;;
15528;SDS011;7866;52.280;9.500;2023-06-26T10:14:32;8.90;;;6.40;;
15528;SDS011;7866;52.280;9.500;2023-06-26T10:19:38;6.95;;;6.35;;
15528;SDS011;7866;52.280;9.500;2023-06-26T10:24:42;8.27;;;7.10;;
15528;SDS011;7866;52.280;9.500;2023-06-26T10:29:47;8.52;;;7.05;;
15528;SDS011;7866;52.280;9.500;2023-06-26T10:34:53;7.05;;;6.32;;
15528;SDS011;7866;52.280;9.500;2023-06-26T10:39:59;7.18;;;6.22;;
15528;SDS011;7866;52.280;9.500;2023-06-26T10:45:08;6.20;;;5.40;;
15528;SDS011;7866;52.280;9.500;2023-06-26T10:50:19;7.40;;;5.22;;
15528;SDS011;7866;52.280;9.500;2023-06-26T10:55:27;7.93;;;5.43;;
15528;SDS011;7866;52.280;9.500;2023-06-26T11:00:29;6.75;;;6.05;;
15528;SDS011;7866;52.280;9.500;2023-06-26T11:05:32;7.07;;;5.72;;
15528;SDS011;7866;52.280;9.500;2023-06-26T11:10:50;6.85;;;5.93;;
15528;SDS011;7866;52.280;9.500;2023-06-26T11:15:53;7.10;;;5.93;;
15528;SDS011;7866;52.280;9.500;2023-06-26T11:21:05;7.50;;;5.88;;
15528;SDS011;7866;52.280;9.500;2023-06-26T11:26:13;5.57;;;5.07;;
15528;SDS011;7866;52.280;9.500;2023-06-26T11:31:25;6.65;;;5.72;;
15528;SDS011;7866;52.280;9.500;2023-06-26T11:36:29;6.65;;;5.47;;
15528;SDS011;7866;52.280;9.500;2023-06-26T11:41:32;10.63;;;6.20;;
15528;SDS011;7866;52.280;9.500;2023-06-26T11:46:35;6.93;;;5.15;;
15528;SDS011;7866;52.280;9.500;2023-06-26T11:51:38;7.88;;;6.35;;
15528;SDS011;7866;52.280;9.500;2023-06-26T11:56:40;6.63;;;6.00;;
15528;SDS011;7866;52.280;9.500;2023-06-26T12:01:42;5.93;;;4.97;;
15528;SDS011;7866;52.280;9.500;2023-06-26T12:06:47;6.47;;;4.70;;
15528;SDS011;7866;52.280;9.500;2023-06-26T12:11:52;4.70;;;4.25;;
15528;SDS011;7866;52.280;9.500;2023-06-26T12:16:55;4.28;;;3.60;;
15528;SDS011;7866;52.280;9.500;2023-06-26T12:22:09;3.83;;;3.47;;
15528;SDS011;7866;52.280;9.500;2023-06-26T12:27:11;4.53;;;3.47;;
15528;SDS011;7866;52.280;9.500;2023-06-26T12:32:14;6.07;;;3.08;;
15528;SDS011;7866;52.280;9.500;2023-06-26T12:37:17;3.15;;;2.92;;
15528;SDS011;7866;52.280;9.500;2023-06-26T12:42:19;3.20;;;2.70;;
15528;SDS011;7866;52.280;9.500;2023-06-26T12:47:23;3.95;;;2.80;;
15528;SDS011;7866;52.280;9.500;2023-06-26T12:52:28;3.22;;;2.47;;
15528;SDS011;7866;52.280;9.500;2023-06-26T12:57:29;3.40;;;2.55;;
15528;SDS011;7866;52.280;9.500;2023-06-26T13:02:31;3.53;;;2.75;;
15528;SDS011;7866;52.280;9.500;2023-06-26T13:07:34;5.07;;;2.47;;
15528;SDS011;7866;52.280;9.500;2023-06-26T13:12:35;2.88;;;2.38;;
15528;SDS011;7866;52.280;9.500;2023-06-26T13:17:37;4.30;;;2.55;;
15528;SDS011;7866;52.280;9.500;2023-06-26T13:22:40;3.42;;;2.30;;
15528;SDS011;7866;52.280;9.500;2023-06-26T13:27:42;2.75;;;2.55;;
15528;SDS011;7866;52.280;9.500;2023-06-26T13:32:43;2.20;;;2.00;;
15528;SDS011;7866;52.280;9.500;2023-06-26T13:37:47;3.28;;;2.03;;
15528;SDS011;7866;52.280;9.500;2023-06-26T13:42:49;4.82;;;1.90;;
15528;SDS011;7866;52.280;9.500;2023-06-26T13:47:50;2.40;;;2.08;;
15528;SDS011;7866;52.280;9.500;2023-06-26T13:52:53;2.70;;;1.90;;
15528;SDS011;7866;52.280;9.500;2023-06-26T13:57:55;2.28;;;1.90;;
15528;SDS011;7866;52.280;9.500;2023-06-26T14:02:56;2.17;;;1.98;;
15528;SDS011;7866;52.280;9.500;2023-06-26T14:08:01;3.13;;;2.00;;
15528;SDS011;7866;52.280;9.500;2023-06-26T14:13:04;6.25;;;2.00;;
15528;SDS011;7866;52.280;9.500;2023-06-26T14:18:06;2.83;;;2.10;;
15528;SDS011;7866;52.280;9.500;2023-06-26T14:23:09;2.17;;;1.98;;
15528;SDS011;7866;52.280;9.500;2023-06-26T14:28:10;2.10;;;1.90;;
15528;SDS011;7866;52.280;9.500;2023-06-26T14:33:12;3.08;;;1.85;;
15528;SDS011;7866;52.280;9.500;2023-06-26T14:38:15;4.25;;;2.00;;
15528;SDS011;7866;52.280;9.500;2023-06-26T14:43:16;2.30;;;1.90;;
15528;SDS011;7866;52.280;9.500;2023-06-26T14:48:18;2.15;;;1.90;;
15528;SDS011;7866;52.280;9.500;2023-06-26T14:53:22;3.90;;;1.85;;
15528;SDS011;7866;52.280;9.500;2023-06-26T14:58:24;2.67;;;1.90;;
15528;SDS011;7866;52.280;9.500;2023-06-26T15:03:26;2.30;;;2.08;;
15528;SDS011;7866;52.280;9.500;2023-06-26T15:08:29;2.13;;;1.92;;
15528;SDS011;7866;52.280;9.500;2023-06-26T15:13:31;3.63;;;1.80;;
15528;SDS011;7866;52.280;9.500;2023-06-26T15:18:32;3.20;;;1.70;;
15528;SDS011;7866;52.280;9.500;2023-06-26T15:23:35;4.13;;;2.20;;
15528;SDS011;7866;52.280;9.500;2023-06-26T15:28:38;3.60;;;2.40;;
15528;SDS011;7866;52.280;9.500;2023-06-26T15:33:40;2.90;;;2.13;;
15528;SDS011;7866;52.280;9.500;2023-06-26T15:38:43;3.53;;;1.90;;
15528;SDS011;7866;52.280;9.500;2023-06-26T15:43:44;3.33;;;1.95;;
15528;SDS011;7866;52.280;9.500;2023-06-26T15:48:46;3.25;;;1.70;;
15528;SDS011;7866;52.280;9.500;2023-06-26T15:53:49;1.70;;;1.60;;
15528;SDS011;7866;52.280;9.500;2023-06-26T15:58:51;3.85;;;1.80;;
15528;SDS011;7866;52.280;9.500;2023-06-26T16:03:52;2.33;;;1.80;;
15528;SDS011;7866;52.280;9.500;2023-06-26T16:08:55;2.97;;;1.80;;
15528;SDS011;7866;52.280;9.500;2023-06-26T16:13:57;2.00;;;1.70;;
15528;SDS011;7866;52.280;9.500;2023-06-26T16:18:59;2.50;;;1.70;;
15528;SDS011;7866;52.280;9.500;2023-06-26T16:24:02;2.88;;;1.80;;
15528;SDS011;7866;52.280;9.500;2023-06-26T16:29:04;2.95;;;1.73;;
15528;SDS011;7866;52.280;9.500;2023-06-26T16:34:06;4.75;;;1.40;;
15528;SDS011;7866;52.280;9.500;2023-06-26T16:39:09;4.30;;;1.77;;
15528;SDS011;7866;52.280;9.500;2023-06-26T16:44:15;2.67;;;1.70;;
15528;SDS011;7866;52.280;9.500;2023-06-26T16:49:17;1.92;;;1.60;;
15528;SDS011;7866;52.280;9.500;2023-06-26T16:54:20;2.30;;;1.50;;
15528;SDS011;7866;52.280;9.500;2023-06-26T16:59:21;3.00;;;1.70;;
15528;SDS011;7866;52.280;9.500;2023-06-26T17:04:24;2.50;;;1.58;;
15528;SDS011;7866;52.280;9.500;2023-06-26T17:09:27;5.20;;;1.63;;
15528;SDS011;7866;52.280;9.500;2023-06-26T17:14:29;3.05;;;1.58;;
15528;SDS011;7866;52.280;9.500;2023-06-26T17:19:30;3.58;;;1.60;;
15528;SDS011;7866;52.280;9.500;2023-06-26T17:24:33;2.88;;;1.33;;
15528;SDS011;7866;52.280;9.500;2023-06-26T17:29:35;4.47;;;1.27;;
15528;SDS011;7866;52.280;9.500;2023-06-26T17:34:37;2.35;;;1.45;;
15528;SDS011;7866;52.280;9.500;2023-06-26T17:39:40;1.33;;;1.23;;
15528;SDS011;7866;52.280;9.500;2023-06-26T17:44:42;2.97;;;1.23;;
15528;SDS011;7866;52.280;9.500;2023-06-26T17:49:44;1.88;;;1.15;;
15528;SDS011;7866;52.280;9.500;2023-06-26T17:54:47;2.00;;;1.30;;
15528;SDS011;7866;52.280;9.500;2023-06-26T17:59:48;4.00;;;1.40;;
15528;SDS011;7866;52.280;9.500;2023-06-26T18:04:50;1.58;;;1.00;;
15528;SDS011;7866;52.280;9.500;2023-06-26T18:09:53;1.95;;;1.38;;
15528;SDS011;7866;52.280;9.500;2023-06-26T18:14:55;2.88;;;1.30;;
15528;SDS011;7866;52.280;9.500;2023-06-26T18:19:56;2.47;;;1.40;;
15528;SDS011;7866;52.280;9.500;2023-06-26T18:24:59;2.00;;;1.25;;
15528;SDS011;7866;52.280;9.500;2023-06-26T18:30:01;2.28;;;1.33;;
15528;SDS011;7866;52.280;9.500;2023-06-26T18:35:04;1.73;;;1.15;;
15528;SDS011;7866;52.280;9.500;2023-06-26T18:40:08;1.95;;;1.40;;
15528;SDS011;7866;52.280;9.500;2023-06-26T18:45:14;2.17;;;1.00;;
15528;SDS011;7866;52.280;9.500;2023-06-26T18:50:16;2.10;;;1.10;;
15528;SDS011;7866;52.280;9.500;2023-06-26T18:55:20;2.70;;;1.17;;
15528;SDS011;7866;52.280;9.500;2023-06-26T19:00:22;1.95;;;1.10;;
15528;SDS011;7866;52.280;9.500;2023-06-26T19:05:23;2.47;;;1.17;;
15528;SDS011;7866;52.280;9.500;2023-06-26T19:10:26;2.10;;;1.20;;
15528;SDS011;7866;52.280;9.500;2023-06-26T19:15:28;1.17;;;1.00;;
15528;SDS011;7866;52.280;9.500;2023-06-26T19:20:30;2.97;;;1.60;;
15528;SDS011;7866;52.280;9.500;2023-06-26T19:25:33;1.63;;;1.02;;
15528;SDS011;7866;52.280;9.500;2023-06-26T19:30:35;2.42;;;1.30;;
15528;SDS011;7866;52.280;9.500;2023-06-26T19:35:36;1.92;;;1.30;;
15528;SDS011;7866;52.280;9.500;2023-06-26T19:40:39;3.13;;;1.20;;
15528;SDS011;7866;52.280;9.500;2023-06-26T19:45:41;2.60;;;1.40;;
15528;SDS011;7866;52.280;9.500;2023-06-26T19:50:42;2.55;;;1.35;;
15528;SDS011;7866;52.280;9.500;2023-06-26T19:55:45;2.88;;;1.30;;
15528;SDS011;7866;52.280;9.500;2023-06-26T20:00:47;3.45;;;1.40;;
15528;SDS011;7866;52.280;9.500;2023-06-26T20:05:49;3.83;;;1.52;;
15528;SDS011;7866;52.280;9.500;2023-06-26T20:10:52;2.47;;;1.38;;
15528;SDS011;7866;52.280;9.500;2023-06-26T20:15:53;3.08;;;1.20;;
15528;SDS011;7866;52.280;9.500;2023-06-26T20:20:55;3.42;;;1.48;;
15528;SDS011;7866;52.280;9.500;2023-06-26T20:25:58;2.42;;;1.33;;
15528;SDS011;7866;52.280;9.500;2023-06-26T20:31:00;3.10;;;1.35;;
15528;SDS011;7866;52.280;9.500;2023-06-26T20:36:01;7.50;;;2.05;;
15528;SDS011;7866;52.280;9.500;2023-06-26T20:41:05;2.00;;;1.50;;
15528;SDS011;7866;52.280;9.500;2023-06-26T20:46:07;3.47;;;1.73;;
15528;SDS011;7866;52.280;9.500;2023-06-26T20:51:09;3.55;;;1.52;;
15528;SDS011;7866;52.280;9.500;2023-06-26T20:56:13;2.38;;;1.27;;
15528;SDS011;7866;52.280;9.500;2023-06-26T21:01:15;2.05;;;1.48;;
15528;SDS011;7866;52.280;9.500;2023-06-26T21:06:16;2.45;;;1.50;;
15528;SDS011;7866;52.280;9.500;2023-06-26T21:11:19;2.38;;;1.23;;
15528;SDS011;7866;52.280;9.500;2023-06-26T21:16:21;6.50;;;1.88;;
15528;SDS011;7866;52.280;9.500;2023-06-26T21:21:23;3.88;;;1.50;;
15528;SDS011;7866;52.280;9.500;2023-06-26T21:26:26;2.85;;;1.58;;
15528;SDS011;7866;52.280;9.500;2023-06-26T21:31:27;4.75;;;1.80;;
15528;SDS011;7866;52.280;9.500;2023-06-26T21:36:29;5.70;;;1.67;;
15528;SDS011;7866;52.280;9.500;2023-06-26T21:41:32;3.63;;;1.52;;
15528;SDS011;7866;52.280;9.500;2023-06-26T21:46:34;2.90;;;1.40;;
15528;SDS011;7866;52.280;9.500;2023-06-26T21:51:36;5.15;;;1.55;;
15528;SDS011;7866;52.280;9.500;2023-06-26T21:56:38;3.63;;;1.95;;
15528;SDS011;7866;52.280;9.500;2023-06-26T22:01:40;6.03;;;1.75;;
15528;SDS011;7866;52.280;9.500;2023-06-26T22:06:42;3.58;;;1.98;;
15528;SDS011;7866;52.280;9.500;2023-06-26T22:11:45;3.67;;;1.70;;
15528;SDS011;7866;52.280;9.500;2023-06-26T22:16:46;2.17;;;1.63;;
15528;SDS011;7866;52.280;9.500;2023-06-26T22:21:48;6.70;;;1.75;;
15528;SDS011;7866;52.280;9.500;2023-06-26T22:26:51;4.53;;;1.70;;
15528;SDS011;7866;52.280;9.500;2023-06-26T22:31:52;3.38;;;1.60;;
15528;SDS011;7866;52.280;9.500;2023-06-26T22:36:54;6.13;;;1.63;;
15528;SDS011;7866;52.280;9.500;2023-06-26T22:41:57;3.42;;;1.85;;
15528;SDS011;7866;52.280;9.500;2023-06-26T22:46:59;3.85;;;1.67;;
15528;SDS011;7866;52.280;9.500;2023-06-26T22:52:00;3.47;;;1.67;;
15528;SDS011;7866;52.280;9.500;2023-06-26T22:57:04;3.80;;;1.70;;
15528;SDS011;7866;52.280;9.500;2023-06-26T23:02:06;3.97;;;2.00;;
15528;SDS011;7866;52.280;9.500;2023-06-26T23:07:08;4.45;;;1.70;;
15528;SDS011;7866;52.280;9.500;2023-06-26T23:12:11;1.75;;;1.40;;
15528;SDS011;7866;52.280;9.500;2023-06-26T23:17:13;3.45;;;1.60;;
15528;SDS011;7866;52.280;9.500;2023-06-26T23:22:15;3.30;;;1.67;;
15528;SDS011;7866;52.280;9.500;2023-06-26T23:27:21;3.22;;;1.50;;
15528;SDS011;7866;52.280;9.500;2023-06-26T23:32:23;5.28;;;1.80;;
15528;SDS011;7866;52.280;9.500;2023-06-26T23:37:24;3.42;;;1.77;;
15528;SDS011;7866;52.280;9.500;2023-06-26T23:42:28;5.10;;;1.92;;
15528;SDS011;7866;52.280;9.500;2023-06-26T23:47:29;4.63;;;1.80;;
15528;SDS011;7866;52.280;9.500;2023-06-26T23:52:33;2.97;;;1.60;;
15528;SDS011;7866;52.280;9.500;2023-06-26T23:57:36;2.10;;;1.65;;
